createdAt,value
2023-09-16T00:01:07.061Z,92.38
2023-09-16T00:03:36.412Z,92.48
2023-09-16T00:06:05.445Z,91.75
2023-09-16T00:08:35.620Z,91.96
2023-09-16T00:11:02.339Z,92.89
2023-09-16T00:13:29.204Z,92.23
2023-09-16T00:15:55.976Z,91.20
2023-09-16T00:18:22.806Z,89.99
2023-09-16T00:20:50.279Z,91.38
2023-09-16T00:23:17.553Z,93.12
2023-09-16T00:25:44.306Z,96.39
2023-09-16T00:28:11.039Z,97.19
2023-09-16T00:30:37.725Z,94.80
2023-09-16T00:33:04.852Z,94.44
2023-09-16T00:35:31.753Z,94.34
2023-09-16T00:37:58.548Z,94.13
2023-09-16T00:40:25.214Z,95.60
2023-09-16T00:42:51.899Z,96.63
2023-09-16T00:45:18.661Z,96.85
2023-09-16T00:47:45.397Z,95.54
2023-09-16T00:50:15.090Z,95.58
2023-09-16T00:52:56.810Z,96.00
2023-09-16T00:55:23.638Z,94.61
2023-09-16T00:57:51.826Z,93.81
2023-09-16T01:00:19.219Z,92.79
2023-09-16T01:02:46.008Z,93.45
2023-09-16T01:05:16.700Z,94.18
2023-09-16T01:07:43.789Z,93.48
2023-09-16T01:10:13.162Z,92.60
2023-09-16T01:12:40.091Z,91.63
2023-09-16T01:15:07.560Z,92.85
2023-09-16T01:18:13.767Z,92.71
2023-09-16T01:20:40.486Z,93.60
2023-09-16T01:23:07.993Z,95.30
2023-09-16T01:25:34.770Z,97.12
2023-09-16T01:28:01.454Z,96.98
2023-09-16T01:30:28.953Z,97.93
2023-09-16T01:33:03.909Z,97.66
2023-09-16T01:35:30.979Z,97.73
2023-09-16T01:37:57.595Z,96.67
2023-09-16T01:40:24.899Z,97.05
2023-09-16T01:42:51.705Z,98.49
2023-09-16T01:45:18.416Z,98.95
2023-09-16T01:47:46.043Z,98.55
2023-09-16T01:50:13.076Z,97.91
2023-09-16T02:04:16.928Z,96.82
2023-09-16T02:06:45.560Z,96.32
2023-09-16T02:09:12.922Z,96.14
2023-09-16T02:11:39.919Z,95.53
2023-09-16T02:14:08.947Z,95.47
2023-09-16T02:16:35.852Z,95.18
2023-09-16T02:19:02.750Z,95.35
2023-09-16T02:21:29.576Z,96.57
2023-09-16T02:23:56.338Z,98.05
2023-09-16T02:26:23.072Z,98.45
2023-09-16T02:28:50.096Z,97.92
2023-09-16T02:31:17.368Z,96.64
2023-09-16T02:33:44.076Z,96.87
2023-09-16T02:36:10.861Z,97.38
2023-09-16T02:38:37.599Z,97.86
2023-09-16T02:41:05.266Z,96.45
2023-09-16T02:43:32.362Z,94.93
2023-09-16T02:45:59.191Z,94.69
2023-09-16T02:48:26.036Z,94.42
2023-09-16T02:50:52.774Z,95.31
2023-09-16T03:16:15.688Z,99.38
2023-09-16T03:18:46.840Z,99.17
2023-09-16T03:21:15.000Z,99.06
2023-09-16T03:23:42.224Z,99.27
2023-09-16T03:26:09.311Z,98.33
2023-09-16T03:28:36.299Z,97.04
2023-09-16T03:31:03.169Z,97.43
2023-09-16T03:33:29.872Z,98.13
2023-09-16T03:35:56.526Z,97.95
2023-09-16T03:38:24.993Z,96.76
2023-09-16T03:40:51.992Z,97.84
2023-09-16T03:43:19.229Z,98.36
2023-09-16T03:45:45.931Z,98.06
2023-09-16T03:48:12.624Z,97.26
2023-09-16T03:50:39.405Z,97.94
2023-09-16T03:53:11.338Z,96.55
2023-09-16T03:55:38.362Z,97.26
2023-09-16T03:58:05.025Z,97.44
2023-09-16T04:00:31.776Z,98.42
2023-09-16T04:02:58.516Z,98.39
2023-09-16T04:05:25.412Z,96.76
2023-09-16T04:07:52.059Z,96.15
2023-09-16T04:10:18.883Z,97.04
2023-09-16T04:12:45.676Z,97.04
2023-09-16T04:15:12.454Z,97.60
2023-09-16T04:17:39.202Z,97.93
2023-09-16T04:20:07.468Z,97.54
2023-09-16T04:22:34.370Z,97.26
2023-09-16T04:25:01.235Z,95.95
2023-09-16T04:27:27.935Z,96.55
2023-09-16T04:29:54.631Z,96.68
2023-09-16T04:32:21.401Z,97.39
2023-09-16T04:34:48.433Z,98.16
2023-09-16T04:37:17.111Z,98.50
2023-09-16T04:39:44.189Z,98.91
2023-09-16T04:42:10.958Z,98.87
2023-09-16T04:44:40.282Z,97.76
2023-09-16T04:47:11.696Z,98.78
2023-09-16T04:49:38.307Z,99.41
2023-09-16T04:52:05.554Z,97.92
2023-09-16T04:54:37.147Z,97.50
2023-09-16T04:57:04.082Z,96.73
2023-09-16T04:59:33.955Z,97.62
2023-09-16T05:02:00.890Z,98.06
2023-09-16T05:04:27.827Z,98.60
2023-09-16T05:06:54.772Z,98.53
2023-09-16T05:09:22.771Z,98.35
2023-09-16T05:11:49.464Z,99.18
2023-09-16T05:14:16.887Z,97.98
2023-09-16T05:16:43.696Z,97.09
2023-09-16T05:19:10.469Z,96.31
2023-09-16T05:21:37.461Z,98.03
2023-09-16T05:24:04.428Z,100.00
2023-09-16T05:26:32.158Z,99.86
2023-09-16T05:28:58.899Z,99.80
2023-09-16T05:31:25.903Z,99.27
2023-09-16T05:33:52.699Z,98.79
2023-09-16T05:36:19.953Z,99.69
2023-09-16T05:38:46.770Z,99.68
2023-09-16T05:41:13.509Z,100.00
2023-09-16T05:43:40.182Z,100.00
2023-09-16T05:46:07.658Z,100.00
2023-09-16T05:48:34.678Z,100.00
2023-09-16T05:51:01.591Z,100.00
2023-09-16T05:53:28.738Z,100.00
2023-09-16T05:55:55.459Z,100.00
2023-09-16T05:58:22.227Z,100.00
2023-09-16T06:00:56.418Z,100.00
2023-09-16T06:03:23.200Z,100.00
2023-09-16T06:30:04.266Z,100.00
2023-09-16T06:32:30.898Z,100.00
2023-09-16T06:34:57.554Z,100.00
2023-09-16T06:37:24.437Z,100.00
2023-09-16T06:39:51.137Z,100.00
2023-09-16T06:42:17.783Z,100.00
2023-09-16T06:44:44.529Z,100.00
2023-09-16T06:47:11.274Z,100.00
2023-09-16T06:49:37.930Z,100.00
2023-09-16T06:52:05.114Z,100.00
2023-09-16T07:26:31.329Z,100.00
2023-09-16T07:28:58.420Z,100.00
2023-09-16T07:31:25.173Z,100.00
2023-09-16T07:33:52.656Z,100.00
2023-09-16T07:36:19.369Z,100.00
2023-09-16T07:38:46.127Z,100.00
2023-09-16T07:41:12.876Z,100.00
2023-09-16T07:43:39.713Z,100.00
2023-09-16T07:46:06.438Z,100.00
2023-09-16T07:48:33.737Z,100.00
2023-09-16T07:51:00.544Z,100.00
2023-09-16T07:53:27.346Z,100.00
2023-09-16T07:55:54.106Z,100.00
2023-09-16T07:58:20.906Z,100.00
2023-09-16T08:00:47.810Z,100.00
2023-09-16T08:03:14.738Z,100.00
2023-09-16T08:05:41.534Z,100.00
2023-09-16T08:20:43.414Z,98.89
2023-09-16T08:23:14.896Z,97.84
2023-09-16T08:25:41.622Z,98.41
2023-09-16T08:28:08.425Z,96.38
2023-09-16T08:30:35.186Z,98.35
2023-09-16T08:33:01.985Z,96.21
2023-09-16T08:35:28.823Z,95.37
2023-09-16T08:37:56.201Z,95.10
2023-09-16T08:40:23.307Z,94.41
2023-09-16T08:42:54.941Z,96.47
2023-09-16T08:45:21.685Z,97.81
2023-09-16T08:47:54.068Z,99.29
2023-09-16T08:50:22.761Z,98.30
2023-09-16T08:52:54.787Z,98.20
2023-09-16T08:55:22.068Z,96.80
2023-09-16T08:58:20.833Z,97.77
2023-09-16T09:00:47.799Z,96.88
2023-09-16T09:03:14.724Z,97.43
2023-09-16T09:05:41.459Z,95.08
2023-09-16T09:08:10.295Z,96.99
2023-09-16T09:10:41.300Z,96.55
2023-09-16T09:13:12.727Z,92.97
2023-09-16T09:15:40.742Z,92.45
2023-09-16T09:18:07.869Z,92.08
2023-09-16T09:20:35.332Z,92.77
2023-09-16T09:23:02.746Z,92.72
2023-09-16T09:25:29.892Z,92.26
2023-09-16T09:27:59.160Z,90.69
2023-09-16T09:30:28.444Z,90.97
2023-09-16T09:32:59.250Z,91.62
2023-09-16T09:35:30.125Z,91.07
2023-09-16T09:37:57.479Z,90.13
2023-09-16T09:40:24.372Z,87.05
2023-09-16T09:42:52.586Z,88.39
2023-09-16T09:45:20.552Z,90.43
2023-09-16T09:47:48.414Z,89.26
2023-09-16T09:50:16.600Z,90.97
2023-09-16T09:52:47.903Z,92.30
2023-09-16T09:55:24.537Z,93.61
2023-09-16T09:57:52.476Z,93.51
2023-09-16T10:00:20.388Z,92.38
2023-09-16T10:02:49.172Z,91.48
2023-09-16T10:05:16.802Z,92.15
2023-09-16T10:07:46.632Z,90.94
2023-09-16T10:10:19.795Z,90.11
2023-09-16T10:12:46.728Z,85.38
2023-09-16T10:15:13.969Z,84.52
2023-09-16T10:17:41.943Z,84.45
2023-09-16T10:20:11.795Z,83.66
2023-09-16T10:22:42.136Z,83.19
2023-09-16T10:25:09.669Z,82.44
2023-09-16T10:27:40.796Z,78.68
2023-09-16T10:30:07.960Z,77.74
2023-09-16T10:32:34.805Z,76.69
2023-09-16T10:35:03.990Z,78.95
2023-09-16T10:37:30.754Z,76.47
2023-09-16T10:39:57.568Z,76.83
2023-09-16T10:42:24.257Z,76.99
2023-09-16T10:44:50.955Z,74.60
2023-09-16T10:47:17.965Z,73.50
2023-09-16T10:49:47.986Z,73.88
2023-09-16T10:52:17.593Z,73.35
2023-09-16T10:54:53.003Z,73.41
2023-09-16T10:57:27.009Z,73.41
2023-09-16T10:59:53.815Z,74.57
2023-09-16T11:02:45.715Z,73.19
2023-09-16T11:05:12.476Z,73.31
2023-09-16T11:07:39.201Z,73.33
2023-09-16T11:10:06.701Z,73.56
2023-09-16T11:12:33.400Z,73.43
2023-09-16T11:15:05.849Z,72.23
2023-09-16T11:17:32.770Z,72.45
2023-09-16T11:20:14.590Z,71.02
2023-09-16T11:22:48.193Z,69.88
2023-09-16T11:25:16.222Z,69.25
2023-09-16T11:27:43.110Z,71.03
2023-09-16T11:30:14.037Z,71.92
2023-09-16T11:32:42.159Z,70.63
2023-09-16T11:35:09.991Z,70.06
2023-09-16T11:37:36.873Z,68.69
2023-09-16T11:40:03.810Z,68.00
2023-09-16T11:42:31.476Z,66.14
2023-09-16T11:44:58.880Z,66.71
2023-09-16T11:47:30.812Z,64.25
2023-09-16T11:49:57.493Z,61.16
2023-09-16T11:52:25.441Z,61.15
2023-09-16T11:54:52.957Z,60.54
2023-09-16T11:57:19.704Z,60.81
2023-09-16T11:59:47.407Z,57.91
2023-09-16T12:02:14.092Z,59.51
2023-09-16T12:04:40.978Z,61.11
2023-09-16T12:07:07.758Z,61.46
2023-09-16T12:09:34.602Z,62.45
2023-09-16T12:12:02.105Z,64.94
2023-09-16T12:14:29.927Z,66.69
2023-09-16T12:16:57.071Z,62.83
2023-09-16T12:19:23.873Z,61.67
2023-09-16T12:21:50.782Z,61.89
2023-09-16T12:24:21.990Z,60.93
2023-09-16T12:26:49.385Z,62.46
2023-09-16T12:29:16.083Z,61.24
2023-09-16T12:31:43.894Z,60.44
2023-09-16T12:34:19.829Z,60.81
2023-09-16T12:36:53.009Z,60.61
2023-09-16T12:39:23.666Z,57.45
2023-09-16T12:42:04.561Z,56.88
2023-09-16T12:44:39.036Z,55.53
2023-09-16T12:47:05.965Z,54.31
2023-09-16T12:49:32.791Z,53.58
2023-09-16T12:51:59.593Z,52.58
2023-09-16T12:54:26.262Z,53.14
2023-09-16T12:56:53.324Z,54.18
2023-09-16T12:59:20.284Z,53.90
2023-09-16T13:01:47.120Z,53.06
2023-09-16T13:04:13.992Z,51.27
2023-09-16T13:06:40.689Z,52.54
2023-09-16T13:09:07.763Z,52.97
2023-09-16T13:11:34.934Z,54.54
2023-09-16T13:14:01.611Z,54.41
2023-09-16T13:16:29.358Z,53.91
2023-09-16T13:18:56.205Z,52.43
2023-09-16T13:21:32.766Z,53.55
2023-09-16T13:24:01.819Z,52.26
2023-09-16T13:26:28.548Z,52.62
2023-09-16T13:28:59.536Z,53.78
2023-09-16T13:31:26.900Z,54.18
2023-09-16T13:34:01.327Z,52.39
2023-09-16T13:36:30.471Z,51.17
2023-09-16T13:38:57.274Z,54.26
2023-09-16T13:41:25.813Z,54.59
2023-09-16T13:43:53.152Z,54.64
2023-09-16T13:46:20.008Z,54.53
2023-09-16T13:48:48.955Z,52.70
2023-09-16T13:51:16.208Z,53.18
2023-09-16T13:53:43.225Z,53.49
2023-09-16T13:56:11.417Z,51.89
2023-09-16T13:58:38.738Z,52.31
2023-09-16T14:01:05.777Z,53.16
2023-09-16T14:03:33.133Z,55.51
2023-09-16T14:06:00.584Z,56.74
2023-09-16T14:08:27.325Z,58.38
2023-09-16T14:10:54.148Z,58.62
2023-09-16T14:13:20.919Z,56.59
2023-09-16T14:15:47.748Z,56.67
2023-09-16T14:18:15.845Z,56.27
2023-09-16T14:20:42.604Z,56.77
2023-09-16T14:23:09.280Z,55.95
2023-09-16T14:25:36.211Z,57.82
2023-09-16T14:28:04.055Z,56.81
2023-09-16T14:30:33.092Z,55.95
2023-09-16T14:33:00.086Z,55.11
2023-09-16T14:35:27.023Z,54.27
2023-09-16T14:37:54.671Z,56.14
2023-09-16T14:40:21.780Z,55.30
2023-09-16T14:42:48.531Z,56.56
2023-09-16T14:45:15.339Z,58.58
2023-09-16T14:47:44.225Z,58.88
2023-09-16T14:50:12.081Z,60.56
2023-09-16T14:52:39.870Z,59.14
2023-09-16T14:55:09.691Z,59.70
2023-09-16T14:57:37.604Z,59.28
2023-09-16T15:00:07.982Z,59.69
2023-09-16T15:02:35.017Z,59.99
2023-09-16T15:05:01.835Z,60.54
2023-09-16T15:07:28.616Z,60.55
2023-09-16T15:09:55.399Z,60.92
2023-09-16T15:12:22.095Z,61.24
2023-09-16T15:14:49.763Z,60.50
2023-09-16T15:17:16.590Z,60.61
2023-09-16T15:19:43.319Z,60.56
2023-09-16T15:22:10.023Z,61.67
2023-09-16T15:24:36.828Z,63.43
2023-09-16T15:27:03.702Z,63.99
2023-09-16T15:29:30.535Z,63.23
2023-09-16T15:32:16.382Z,63.81
2023-09-16T15:34:44.255Z,64.65
2023-09-16T15:37:11.084Z,65.51
2023-09-16T15:39:37.987Z,65.91
2023-09-16T15:42:04.844Z,65.96
2023-09-16T15:44:31.567Z,66.76
2023-09-16T15:46:58.911Z,67.28
2023-09-16T15:49:25.795Z,68.45
2023-09-16T15:51:52.550Z,68.41
2023-09-16T15:54:19.888Z,69.21
2023-09-16T15:56:46.530Z,71.32
2023-09-16T15:59:13.390Z,72.42
2023-09-16T16:01:41.502Z,73.35
2023-09-16T16:04:08.385Z,74.03
2023-09-16T16:06:35.203Z,72.76
2023-09-16T16:09:01.991Z,73.18
2023-09-16T16:11:28.767Z,74.79
2023-09-16T16:13:56.833Z,75.21
2023-09-16T16:16:24.217Z,75.84
2023-09-16T16:18:52.519Z,75.83
2023-09-16T16:21:19.253Z,75.50
2023-09-16T16:23:46.035Z,74.19
2023-09-16T16:26:12.633Z,74.68
2023-09-16T16:28:39.550Z,74.76
2023-09-16T16:31:06.533Z,75.77
2023-09-16T16:33:33.439Z,76.03
2023-09-16T16:36:00.236Z,75.13
2023-09-16T16:38:28.535Z,78.23
2023-09-16T16:40:57.103Z,78.93
2023-09-16T16:43:23.956Z,78.00
2023-09-16T16:45:50.713Z,79.04
2023-09-16T16:48:18.850Z,78.36
2023-09-16T16:50:45.766Z,78.95
2023-09-16T16:53:13.308Z,77.86
2023-09-16T16:55:40.430Z,78.29
2023-09-16T16:58:07.816Z,76.56
2023-09-16T17:00:34.787Z,77.63
2023-09-16T17:03:01.675Z,77.78
2023-09-16T17:05:28.554Z,77.81
2023-09-16T17:07:58.235Z,78.17
2023-09-16T17:10:25.005Z,78.47
2023-09-16T17:12:51.926Z,78.15
2023-09-16T17:15:19.612Z,79.68
2023-09-16T17:17:46.915Z,79.37
2023-09-16T17:20:14.933Z,79.45
2023-09-16T17:22:44.203Z,79.63
2023-09-16T17:25:10.979Z,78.36
2023-09-16T17:27:40.839Z,78.48
2023-09-16T17:30:09.821Z,81.40
2023-09-16T17:32:36.913Z,80.30
2023-09-16T17:35:05.420Z,78.80
2023-09-16T17:37:33.498Z,80.51
2023-09-16T17:40:00.498Z,79.99
2023-09-16T17:42:27.938Z,79.04
2023-09-16T17:44:54.756Z,80.02
2023-09-16T17:47:21.490Z,80.70
2023-09-16T17:49:48.303Z,80.75
2023-09-16T17:52:15.168Z,80.59
2023-09-16T17:54:41.941Z,80.24
2023-09-16T17:57:08.683Z,80.47
2023-09-16T17:59:35.542Z,81.60
2023-09-16T18:02:02.363Z,82.25
2023-09-16T18:04:29.233Z,80.66
2023-09-16T18:06:55.999Z,83.88
2023-09-16T18:09:22.725Z,84.47
2023-09-16T18:11:50.422Z,84.75
2023-09-16T18:14:17.763Z,84.37
2023-09-16T18:16:44.682Z,83.07
2023-09-16T18:19:12.198Z,81.55
2023-09-16T18:21:39.170Z,81.87
2023-09-16T18:24:07.057Z,82.18
2023-09-16T18:26:33.844Z,83.70
2023-09-16T18:29:00.555Z,82.83
2023-09-16T18:31:27.436Z,83.44
2023-09-16T18:33:54.364Z,83.77
2023-09-16T18:36:21.118Z,84.46
2023-09-16T18:38:48.132Z,83.95
2023-09-16T18:41:15.233Z,85.78
2023-09-16T18:43:41.939Z,85.87
2023-09-16T18:46:08.648Z,84.70
2023-09-16T18:48:35.508Z,84.38
2023-09-16T18:51:02.423Z,86.06
2023-09-16T18:53:29.171Z,87.21
2023-09-16T18:55:56.275Z,86.21
2023-09-16T18:58:23.110Z,85.48
2023-09-16T19:00:49.926Z,85.10
2023-09-16T19:03:16.857Z,86.00
2023-09-16T19:05:43.771Z,86.71
2023-09-16T19:08:10.564Z,86.42
2023-09-16T19:10:39.266Z,87.20
2023-09-16T19:13:07.469Z,89.56
2023-09-16T19:15:34.413Z,89.13
2023-09-16T19:18:01.105Z,86.77
2023-09-16T19:20:27.840Z,86.64
2023-09-16T19:22:54.645Z,86.36
2023-09-16T19:25:21.485Z,85.94
2023-09-16T19:27:48.150Z,86.22
2023-09-16T19:30:14.887Z,88.71
2023-09-16T19:32:41.629Z,88.80
2023-09-16T19:35:08.734Z,87.96
2023-09-16T19:37:35.420Z,88.29
2023-09-16T19:40:02.795Z,88.54
2023-09-16T19:42:29.694Z,87.61
2023-09-16T19:44:56.431Z,88.61
2023-09-16T19:47:25.498Z,89.93
2023-09-16T19:49:53.317Z,90.71
2023-09-16T19:52:20.738Z,89.14
2023-09-16T19:54:47.631Z,88.95
2023-09-16T19:57:14.430Z,89.45
2023-09-16T19:59:41.274Z,88.72
2023-09-16T20:02:08.172Z,90.18
2023-09-16T20:04:35.278Z,89.56
2023-09-16T20:07:02.229Z,89.83
2023-09-16T20:09:29.219Z,89.28
2023-09-16T20:11:55.952Z,90.19
2023-09-16T20:14:22.614Z,89.14
2023-09-16T20:16:49.541Z,90.23
2023-09-16T20:19:21.812Z,90.33
2023-09-16T20:21:50.823Z,92.72
2023-09-16T20:24:17.583Z,93.56
2023-09-16T20:26:44.314Z,93.39
2023-09-16T20:29:11.071Z,91.98
2023-09-16T20:31:38.130Z,90.60
2023-09-16T20:34:11.706Z,91.24
2023-09-16T20:36:42.646Z,90.90
2023-09-16T20:39:09.494Z,92.51
2023-09-16T20:41:36.229Z,92.20
2023-09-16T20:44:04.295Z,95.03
2023-09-16T20:46:31.419Z,93.09
2023-09-16T20:48:58.227Z,92.15
2023-09-16T20:51:25.110Z,92.12
2023-09-16T20:53:52.196Z,92.95
2023-09-16T20:56:18.968Z,91.80
2023-09-16T20:58:45.709Z,92.14
2023-09-16T21:01:13.037Z,92.76
2023-09-16T21:03:40.730Z,91.64
2023-09-16T21:06:07.554Z,92.21
2023-09-16T21:08:34.318Z,92.17
2023-09-16T21:11:01.008Z,91.31
2023-09-16T21:13:27.767Z,91.65
2023-09-16T21:15:54.594Z,91.34
2023-09-16T21:18:22.068Z,91.16
2023-09-16T21:20:48.834Z,90.72
2023-09-16T21:23:15.582Z,90.27
2023-09-16T21:25:42.573Z,90.24
2023-09-16T21:28:09.287Z,90.30
2023-09-16T21:30:36.064Z,89.01
2023-09-16T21:33:04.090Z,89.81
2023-09-16T21:35:30.999Z,89.51
2023-09-16T21:37:57.779Z,89.61
2023-09-16T21:40:25.832Z,88.99
2023-09-16T21:42:53.177Z,89.94
2023-09-16T21:45:19.994Z,89.65
2023-09-16T21:47:46.846Z,88.00
2023-09-16T21:50:13.567Z,87.66
2023-09-16T21:52:40.374Z,87.92
2023-09-16T21:55:07.768Z,87.89
2023-09-16T21:57:34.558Z,88.39
2023-09-16T22:00:01.810Z,88.10
2023-09-16T22:02:28.733Z,87.36
2023-09-16T22:04:55.624Z,87.09
2023-09-16T22:07:22.382Z,85.52
2023-09-16T22:09:49.270Z,85.62
2023-09-16T22:12:15.913Z,86.25
2023-09-16T22:14:42.625Z,85.39
2023-09-16T22:17:09.329Z,86.17
2023-09-16T22:19:36.110Z,84.63
2023-09-16T22:22:02.940Z,84.51
2023-09-16T22:24:29.615Z,85.09
2023-09-16T22:26:58.298Z,84.90
2023-09-16T22:29:25.121Z,85.02
2023-09-16T22:31:51.912Z,85.53
2023-09-16T22:34:18.747Z,87.04
2023-09-16T22:36:45.510Z,87.46
2023-09-16T22:39:12.307Z,84.53
2023-09-16T22:41:39.144Z,84.67
2023-09-16T22:44:07.223Z,85.79
2023-09-16T22:46:37.033Z,86.32
2023-09-16T22:49:04.337Z,85.51
2023-09-16T22:51:31.437Z,85.92
2023-09-16T22:53:58.316Z,86.20
2023-09-16T22:56:24.977Z,86.74
2023-09-16T22:58:51.898Z,84.53
2023-09-16T23:01:19.273Z,82.96
2023-09-16T23:03:46.152Z,84.55
2023-09-16T23:06:12.839Z,82.46
2023-09-16T23:08:39.812Z,81.13
2023-09-16T23:11:06.615Z,81.88
2023-09-16T23:13:34.325Z,83.08
2023-09-16T23:16:01.082Z,83.33
2023-09-16T23:18:27.914Z,83.36
2023-09-16T23:20:58.351Z,83.95
2023-09-16T23:23:25.851Z,83.65
2023-09-16T23:25:53.422Z,83.79
2023-09-16T23:28:20.219Z,83.65
2023-09-16T23:30:46.966Z,84.58
2023-09-16T23:33:15.789Z,84.69
2023-09-16T23:35:42.588Z,85.45
2023-09-16T23:38:09.412Z,85.23
2023-09-16T23:40:36.689Z,84.96
2023-09-16T23:43:04.492Z,85.21
2023-09-16T23:45:31.183Z,85.78
2023-09-16T23:47:57.937Z,87.39
2023-09-16T23:50:24.591Z,87.06
2023-09-16T23:52:51.343Z,87.02
2023-09-16T23:55:18.172Z,86.29
2023-09-16T23:57:44.898Z,86.00
